sensor_id;sensor_type;location;lat;lon;timestamp;temperature;humidity
16134;DHT22;8172;45.018;5.972;2023-03-01T00:03:57;-0.60;72.50
16134;DHT22;8172;45.018;5.972;2023-03-01T00:09:04;-0.60;72.50
16134;DHT22;8172;45.018;5.972;2023-03-01T00:14:11;-0.50;72.50
16134;DHT22;8172;45.018;5.972;2023-03-01T00:19:19;-0.50;72.50
16134;DHT22;8172;45.018;5.972;2023-03-01T00:24:27;-0.50;72.30
16134;DHT22;8172;45.018;5.972;2023-03-01T00:29:34;-0.50;72.20
16134;DHT22;8172;45.018;5.972;2023-03-01T00:34:41;-0.50;72.20
16134;DHT22;8172;45.018;5.972;2023-03-01T00:39:48;-0.50;72.10
16134;DHT22;8172;45.018;5.972;2023-03-01T00:44:55;-0.60;72.00
16134;DHT22;8172;45.018;5.972;2023-03-01T00:50:03;-0.60;71.90
16134;DHT22;8172;45.018;5.972;2023-03-01T00:55:10;-0.60;72.10
16134;DHT22;8172;45.018;5.972;2023-03-01T01:00:18;-0.70;72.10
16134;DHT22;8172;45.018;5.972;2023-03-01T01:05:26;-0.70;72.20
16134;DHT22;8172;45.018;5.972;2023-03-01T01:10:34;-0.70;72.40
16134;DHT22;8172;45.018;5.972;2023-03-01T01:15:41;-0.70;72.50
16134;DHT22;8172;45.018;5.972;2023-03-01T01:20:49;-0.70;72.40
16134;DHT22;8172;45.018;5.972;2023-03-01T01:25:56;-0.70;72.30
16134;DHT22;8172;45.018;5.972;2023-03-01T01:31:05;-0.70;72.30
16134;DHT22;8172;45.018;5.972;2023-03-01T01:36:12;-0.70;72.40
16134;DHT22;8172;45.018;5.972;2023-03-01T01:41:20;-0.70;72.50
16134;DHT22;8172;45.018;5.972;2023-03-01T01:46:30;-0.70;72.50
16134;DHT22;8172;45.018;5.972;2023-03-01T01:51:40;-0.70;72.40
16134;DHT22;8172;45.018;5.972;2023-03-01T01:56:51;-0.80;72.50
16134;DHT22;8172;45.018;5.972;2023-03-01T02:02:00;-0.80;72.70
16134;DHT22;8172;45.018;5.972;2023-03-01T02:12:20;-0.80;72.80
16134;DHT22;8172;45.018;5.972;2023-03-01T02:17:27;-0.80;72.70
16134;DHT22;8172;45.018;5.972;2023-03-01T02:22:36;-0.80;72.70
16134;DHT22;8172;45.018;5.972;2023-03-01T02:32:53;-0.70;72.40
16134;DHT22;8172;45.018;5.972;2023-03-01T02:38:05;-0.70;72.40
16134;DHT22;8172;45.018;5.972;2023-03-01T02:43:12;-0.70;72.30
16134;DHT22;8172;45.018;5.972;2023-03-01T02:48:20;-0.70;72.30
16134;DHT22;8172;45.018;5.972;2023-03-01T02:53:34;-0.70;72.40
16134;DHT22;8172;45.018;5.972;2023-03-01T02:58:37;-0.70;72.30
16134;DHT22;8172;45.018;5.972;2023-03-01T03:03:46;-0.70;72.30
16134;DHT22;8172;45.018;5.972;2023-03-01T03:08:54;-0.70;72.30
16134;DHT22;8172;45.018;5.972;2023-03-01T03:14:02;-0.70;72.20
16134;DHT22;8172;45.018;5.972;2023-03-01T03:19:10;-0.70;72.10
16134;DHT22;8172;45.018;5.972;2023-03-01T03:24:18;-0.70;72.00
16134;DHT22;8172;45.018;5.972;2023-03-01T03:29:24;-0.70;72.10
16134;DHT22;8172;45.018;5.972;2023-03-01T03:34:31;-0.70;72.10
16134;DHT22;8172;45.018;5.972;2023-03-01T03:39:38;-0.70;72.10
16134;DHT22;8172;45.018;5.972;2023-03-01T03:44:46;-0.80;72.10
16134;DHT22;8172;45.018;5.972;2023-03-01T03:49:53;-0.80;72.00
16134;DHT22;8172;45.018;5.972;2023-03-01T03:54:59;-0.90;72.00
16134;DHT22;8172;45.018;5.972;2023-03-01T04:00:09;-1.00;72.10
16134;DHT22;8172;45.018;5.972;2023-03-01T04:05:19;-1.00;72.20
16134;DHT22;8172;45.018;5.972;2023-03-01T04:10:27;-0.90;72.10
16134;DHT22;8172;45.018;5.972;2023-03-01T04:15:34;-0.90;72.00
16134;DHT22;8172;45.018;5.972;2023-03-01T04:20:42;-0.90;72.10
16134;DHT22;8172;45.018;5.972;2023-03-01T04:25:53;-0.90;72.20
16134;DHT22;8172;45.018;5.972;2023-03-01T04:31:03;-0.90;72.20
16134;DHT22;8172;45.018;5.972;2023-03-01T04:36:14;-0.90;72.40
16134;DHT22;8172;45.018;5.972;2023-03-01T04:41:23;-0.90;72.70
16134;DHT22;8172;45.018;5.972;2023-03-01T04:46:31;-0.90;72.70
16134;DHT22;8172;45.018;5.972;2023-03-01T04:51:38;-0.90;72.50
16134;DHT22;8172;45.018;5.972;2023-03-01T04:56:45;-0.90;72.40
16134;DHT22;8172;45.018;5.972;2023-03-01T05:01:53;-0.90;72.50
16134;DHT22;8172;45.018;5.972;2023-03-01T05:07:01;-0.90;72.40
16134;DHT22;8172;45.018;5.972;2023-03-01T05:12:08;-1.00;72.60
16134;DHT22;8172;45.018;5.972;2023-03-01T05:17:15;-1.10;72.70
16134;DHT22;8172;45.018;5.972;2023-03-01T05:22:22;-1.10;72.70
16134;DHT22;8172;45.018;5.972;2023-03-01T05:27:29;-1.10;72.80
16134;DHT22;8172;45.018;5.972;2023-03-01T05:32:36;-1.10;72.80
16134;DHT22;8172;45.018;5.972;2023-03-01T05:37:45;-1.00;72.80
16134;DHT22;8172;45.018;5.972;2023-03-01T05:42:55;-1.00;72.70
16134;DHT22;8172;45.018;5.972;2023-03-01T05:48:02;-1.00;72.60
16134;DHT22;8172;45.018;5.972;2023-03-01T05:53:13;-1.10;72.70
16134;DHT22;8172;45.018;5.972;2023-03-01T05:58:20;-1.10;72.80
16134;DHT22;8172;45.018;5.972;2023-03-01T06:03:27;-1.10;72.80
16134;DHT22;8172;45.018;5.972;2023-03-01T06:08:34;-1.10;72.90
16134;DHT22;8172;45.018;5.972;2023-03-01T06:13:43;-1.10;72.90
16134;DHT22;8172;45.018;5.972;2023-03-01T06:18:51;-1.10;73.00
16134;DHT22;8172;45.018;5.972;2023-03-01T06:23:58;-1.10;73.00
16134;DHT22;8172;45.018;5.972;2023-03-01T06:29:05;-1.10;73.00
16134;DHT22;8172;45.018;5.972;2023-03-01T06:34:12;-1.10;73.10
16134;DHT22;8172;45.018;5.972;2023-03-01T06:39:19;-1.20;73.10
16134;DHT22;8172;45.018;5.972;2023-03-01T06:44:26;-1.20;73.30
16134;DHT22;8172;45.018;5.972;2023-03-01T06:49:33;-1.20;73.30
16134;DHT22;8172;45.018;5.972;2023-03-01T06:54:40;-1.10;73.40
16134;DHT22;8172;45.018;5.972;2023-03-01T06:59:47;-1.10;73.40
16134;DHT22;8172;45.018;5.972;2023-03-01T07:04:54;-1.00;73.50
16134;DHT22;8172;45.018;5.972;2023-03-01T07:10:01;-1.00;73.50
16134;DHT22;8172;45.018;5.972;2023-03-01T07:15:10;-0.90;73.40
16134;DHT22;8172;45.018;5.972;2023-03-01T07:20:18;-0.90;73.40
16134;DHT22;8172;45.018;5.972;2023-03-01T07:25:27;-0.80;73.50
16134;DHT22;8172;45.018;5.972;2023-03-01T07:30:34;-0.80;73.60
16134;DHT22;8172;45.018;5.972;2023-03-01T07:35:41;-0.70;73.60
16134;DHT22;8172;45.018;5.972;2023-03-01T07:40:48;-0.70;73.50
16134;DHT22;8172;45.018;5.972;2023-03-01T07:45:57;-0.60;73.40
16134;DHT22;8172;45.018;5.972;2023-03-01T07:51:05;-0.60;73.40
16134;DHT22;8172;45.018;5.972;2023-03-01T07:56:13;-0.60;73.30
16134;DHT22;8172;45.018;5.972;2023-03-01T08:01:23;-0.60;73.30
16134;DHT22;8172;45.018;5.972;2023-03-01T08:06:29;-0.60;73.30
16134;DHT22;8172;45.018;5.972;2023-03-01T08:11:37;-0.50;73.10
16134;DHT22;8172;45.018;5.972;2023-03-01T08:16:44;-0.50;73.00
16134;DHT22;8172;45.018;5.972;2023-03-01T08:21:51;-0.50;73.00
16134;DHT22;8172;45.018;5.972;2023-03-01T08:26:58;-0.50;72.90
16134;DHT22;8172;45.018;5.972;2023-03-01T08:32:04;-0.50;73.00
16134;DHT22;8172;45.018;5.972;2023-03-01T08:37:12;-0.50;73.00
16134;DHT22;8172;45.018;5.972;2023-03-01T08:42:19;-0.50;73.00
16134;DHT22;8172;45.018;5.972;2023-03-01T08:47:26;-0.50;73.00
16134;DHT22;8172;45.018;5.972;2023-03-01T08:52:36;-0.50;73.00
16134;DHT22;8172;45.018;5.972;2023-03-01T08:57:42;-0.50;73.00
16134;DHT22;8172;45.018;5.972;2023-03-01T09:02:50;-0.40;73.10
16134;DHT22;8172;45.018;5.972;2023-03-01T09:07:57;-0.40;73.30
16134;DHT22;8172;45.018;5.972;2023-03-01T09:13:04;-0.30;73.30
16134;DHT22;8172;45.018;5.972;2023-03-01T09:18:11;-0.30;73.50
16134;DHT22;8172;45.018;5.972;2023-03-01T09:23:18;-0.20;73.50
16134;DHT22;8172;45.018;5.972;2023-03-01T09:28:25;-0.10;73.60
16134;DHT22;8172;45.018;5.972;2023-03-01T09:33:34;-0.10;73.50
16134;DHT22;8172;45.018;5.972;2023-03-01T09:38:42;-0.10;73.60
16134;DHT22;8172;45.018;5.972;2023-03-01T09:43:50;0.00;74.00
16134;DHT22;8172;45.018;5.972;2023-03-01T09:49:03;0.00;73.70
16134;DHT22;8172;45.018;5.972;2023-03-01T09:54:11;0.00;73.60
16134;DHT22;8172;45.018;5.972;2023-03-01T10:09:40;0.40;73.80
16134;DHT22;8172;45.018;5.972;2023-03-01T10:14:51;0.50;74.00
16134;DHT22;8172;45.018;5.972;2023-03-01T10:20:10;0.60;73.90
16134;DHT22;8172;45.018;5.972;2023-03-01T10:25:08;0.70;74.10
16134;DHT22;8172;45.018;5.972;2023-03-01T10:30:18;0.80;73.90
16134;DHT22;8172;45.018;5.972;2023-03-01T10:35:28;0.90;73.90
16134;DHT22;8172;45.018;5.972;2023-03-01T10:40:36;1.00;73.70
16134;DHT22;8172;45.018;5.972;2023-03-01T10:45:44;1.10;73.70
16134;DHT22;8172;45.018;5.972;2023-03-01T10:56:04;1.40;73.50
16134;DHT22;8172;45.018;5.972;2023-03-01T11:06:21;1.90;73.30
16134;DHT22;8172;45.018;5.972;2023-03-01T11:11:31;2.10;73.20
16134;DHT22;8172;45.018;5.972;2023-03-01T11:16:40;2.40;73.10
16134;DHT22;8172;45.018;5.972;2023-03-01T11:26:57;2.70;72.10
16134;DHT22;8172;45.018;5.972;2023-03-01T11:32:08;2.80;72.00
16134;DHT22;8172;45.018;5.972;2023-03-01T11:42:31;3.00;72.00
16134;DHT22;8172;45.018;5.972;2023-03-01T11:52:48;3.10;71.50
16134;DHT22;8172;45.018;5.972;2023-03-01T12:23:44;3.80;71.00
16134;DHT22;8172;45.018;5.972;2023-03-01T12:28:55;3.90;71.00
16134;DHT22;8172;45.018;5.972;2023-03-01T12:54:30;4.10;70.80
16134;DHT22;8172;45.018;5.972;2023-03-01T13:09:55;4.50;70.50
16134;DHT22;8172;45.018;5.972;2023-03-01T13:15:02;4.60;70.30
16134;DHT22;8172;45.018;5.972;2023-03-01T13:20:12;4.60;70.20
16134;DHT22;8172;45.018;5.972;2023-03-01T13:25:20;4.60;69.80
16134;DHT22;8172;45.018;5.972;2023-03-01T13:45:56;4.70;69.50
16134;DHT22;8172;45.018;5.972;2023-03-01T13:51:07;4.80;69.70
16134;DHT22;8172;45.018;5.972;2023-03-01T13:56:17;4.80;69.40
16134;DHT22;8172;45.018;5.972;2023-03-01T14:06:32;4.90;69.30
16134;DHT22;8172;45.018;5.972;2023-03-01T14:16:52;4.90;69.00
16134;DHT22;8172;45.018;5.972;2023-03-01T14:22:03;4.90;69.00
16134;DHT22;8172;45.018;5.972;2023-03-01T14:27:11;4.90;69.10
16134;DHT22;8172;45.018;5.972;2023-03-01T14:32:21;5.00;68.90
16134;DHT22;8172;45.018;5.972;2023-03-01T14:37:31;4.90;68.70
16134;DHT22;8172;45.018;5.972;2023-03-01T14:42:39;4.90;68.30
16134;DHT22;8172;45.018;5.972;2023-03-01T14:47:46;4.90;68.20
16134;DHT22;8172;45.018;5.972;2023-03-01T14:52:56;4.80;68.10
16134;DHT22;8172;45.018;5.972;2023-03-01T14:58:09;4.70;68.10
16134;DHT22;8172;45.018;5.972;2023-03-01T15:03:21;4.60;68.40
16134;DHT22;8172;45.018;5.972;2023-03-01T15:08:27;4.50;68.30
16134;DHT22;8172;45.018;5.972;2023-03-01T15:13:36;4.30;68.00
16134;DHT22;8172;45.018;5.972;2023-03-01T15:18:46;4.10;68.10
16134;DHT22;8172;45.018;5.972;2023-03-01T15:23:56;3.90;68.10
16134;DHT22;8172;45.018;5.972;2023-03-01T15:29:03;3.80;68.50
16134;DHT22;8172;45.018;5.972;2023-03-01T15:39:25;3.40;68.70
16134;DHT22;8172;45.018;5.972;2023-03-01T15:44:33;3.30;68.80
16134;DHT22;8172;45.018;5.972;2023-03-01T15:49:42;3.10;69.10
16134;DHT22;8172;45.018;5.972;2023-03-01T15:54:52;3.00;69.40
16134;DHT22;8172;45.018;5.972;2023-03-01T15:59:58;3.00;69.50
16134;DHT22;8172;45.018;5.972;2023-03-01T16:10:17;2.80;69.60
16134;DHT22;8172;45.018;5.972;2023-03-01T16:15:27;2.70;69.80
16134;DHT22;8172;45.018;5.972;2023-03-01T16:20:37;2.60;70.00
16134;DHT22;8172;45.018;5.972;2023-03-01T16:25:44;2.60;70.20
16134;DHT22;8172;45.018;5.972;2023-03-01T16:30:51;2.60;70.40
16134;DHT22;8172;45.018;5.972;2023-03-01T16:35:58;2.50;70.50
16134;DHT22;8172;45.018;5.972;2023-03-01T16:41:06;2.40;70.70
16134;DHT22;8172;45.018;5.972;2023-03-01T16:46:16;2.40;70.70
16134;DHT22;8172;45.018;5.972;2023-03-01T16:51:24;2.30;70.90
16134;DHT22;8172;45.018;5.972;2023-03-01T16:56:31;2.30;71.00
16134;DHT22;8172;45.018;5.972;2023-03-01T17:01:40;2.30;71.10
16134;DHT22;8172;45.018;5.972;2023-03-01T17:06:47;2.30;71.00
16134;DHT22;8172;45.018;5.972;2023-03-01T17:11:54;2.30;70.90
16134;DHT22;8172;45.018;5.972;2023-03-01T17:17:01;2.10;70.90
16134;DHT22;8172;45.018;5.972;2023-03-01T17:22:09;2.00;71.00
16134;DHT22;8172;45.018;5.972;2023-03-01T17:27:16;1.90;71.30
16134;DHT22;8172;45.018;5.972;2023-03-01T17:32:24;1.80;71.40
16134;DHT22;8172;45.018;5.972;2023-03-01T17:37:31;1.60;71.60
16134;DHT22;8172;45.018;5.972;2023-03-01T17:42:38;1.60;71.80
16134;DHT22;8172;45.018;5.972;2023-03-01T17:47:45;1.60;71.80
16134;DHT22;8172;45.018;5.972;2023-03-01T17:52:52;1.60;71.70
16134;DHT22;8172;45.018;5.972;2023-03-01T17:58:00;1.60;71.80
16134;DHT22;8172;45.018;5.972;2023-03-01T18:03:07;1.50;71.80
16134;DHT22;8172;45.018;5.972;2023-03-01T18:08:14;1.40;71.80
16134;DHT22;8172;45.018;5.972;2023-03-01T18:13:21;1.40;71.90
16134;DHT22;8172;45.018;5.972;2023-03-01T18:18:28;1.40;72.10
16134;DHT22;8172;45.018;5.972;2023-03-01T18:23:36;1.40;72.10
16134;DHT22;8172;45.018;5.972;2023-03-01T18:28:44;1.40;72.10
16134;DHT22;8172;45.018;5.972;2023-03-01T18:33:53;1.40;72.00
16134;DHT22;8172;45.018;5.972;2023-03-01T18:39:02;1.40;72.00
16134;DHT22;8172;45.018;5.972;2023-03-01T18:44:10;1.40;72.00
16134;DHT22;8172;45.018;5.972;2023-03-01T18:49:18;1.30;72.10
16134;DHT22;8172;45.018;5.972;2023-03-01T18:54:26;1.30;72.10
16134;DHT22;8172;45.018;5.972;2023-03-01T18:59:33;1.30;72.20
16134;DHT22;8172;45.018;5.972;2023-03-01T19:04:42;1.30;72.20
16134;DHT22;8172;45.018;5.972;2023-03-01T19:09:49;1.30;72.10
16134;DHT22;8172;45.018;5.972;2023-03-01T19:14:57;1.20;72.20
16134;DHT22;8172;45.018;5.972;2023-03-01T19:20:04;1.20;72.30
16134;DHT22;8172;45.018;5.972;2023-03-01T19:25:11;1.10;72.40
16134;DHT22;8172;45.018;5.972;2023-03-01T19:30:18;1.10;72.40
16134;DHT22;8172;45.018;5.972;2023-03-01T19:35:26;1.10;72.60
16134;DHT22;8172;45.018;5.972;2023-03-01T19:40:34;1.10;72.60
16134;DHT22;8172;45.018;5.972;2023-03-01T19:45:42;1.10;72.40
16134;DHT22;8172;45.018;5.972;2023-03-01T19:50:51;1.20;72.10
16134;DHT22;8172;45.018;5.972;2023-03-01T19:56:00;1.20;72.30
16134;DHT22;8172;45.018;5.972;2023-03-01T20:06:18;1.00;72.50
16134;DHT22;8172;45.018;5.972;2023-03-01T20:11:26;1.00;72.50
16134;DHT22;8172;45.018;5.972;2023-03-01T20:16:33;0.90;72.60
16134;DHT22;8172;45.018;5.972;2023-03-01T20:21:41;0.90;72.80
16134;DHT22;8172;45.018;5.972;2023-03-01T20:26:48;0.90;72.80
16134;DHT22;8172;45.018;5.972;2023-03-01T20:31:56;0.80;72.90
16134;DHT22;8172;45.018;5.972;2023-03-01T20:37:03;0.80;72.90
16134;DHT22;8172;45.018;5.972;2023-03-01T20:42:10;0.70;73.00
16134;DHT22;8172;45.018;5.972;2023-03-01T20:47:17;0.70;73.00
16134;DHT22;8172;45.018;5.972;2023-03-01T20:52:26;0.70;73.20
16134;DHT22;8172;45.018;5.972;2023-03-01T20:57:34;0.70;73.20
16134;DHT22;8172;45.018;5.972;2023-03-01T21:02:42;0.70;73.20
16134;DHT22;8172;45.018;5.972;2023-03-01T21:07:49;0.70;73.30
16134;DHT22;8172;45.018;5.972;2023-03-01T21:12:56;0.70;73.20
16134;DHT22;8172;45.018;5.972;2023-03-01T21:18:03;0.70;72.90
16134;DHT22;8172;45.018;5.972;2023-03-01T21:23:10;0.70;73.00
16134;DHT22;8172;45.018;5.972;2023-03-01T21:28:17;0.70;73.20
16134;DHT22;8172;45.018;5.972;2023-03-01T21:33:24;0.70;73.30
16134;DHT22;8172;45.018;5.972;2023-03-01T21:38:34;0.70;73.30
16134;DHT22;8172;45.018;5.972;2023-03-01T21:43:43;0.70;73.30
16134;DHT22;8172;45.018;5.972;2023-03-01T21:48:51;0.70;73.20
16134;DHT22;8172;45.018;5.972;2023-03-01T21:53:59;0.70;73.30
16134;DHT22;8172;45.018;5.972;2023-03-01T21:59:09;0.60;73.30
16134;DHT22;8172;45.018;5.972;2023-03-01T22:04:16;0.60;73.40
16134;DHT22;8172;45.018;5.972;2023-03-01T22:09:26;0.50;73.40
16134;DHT22;8172;45.018;5.972;2023-03-01T22:14:33;0.50;73.40
16134;DHT22;8172;45.018;5.972;2023-03-01T22:19:41;0.40;73.50
16134;DHT22;8172;45.018;5.972;2023-03-01T22:24:47;0.40;73.60
16134;DHT22;8172;45.018;5.972;2023-03-01T22:29:54;0.40;73.70
16134;DHT22;8172;45.018;5.972;2023-03-01T22:35:02;0.40;73.70
16134;DHT22;8172;45.018;5.972;2023-03-01T22:40:09;0.40;73.80
16134;DHT22;8172;45.018;5.972;2023-03-01T22:45:16;0.40;73.80
16134;DHT22;8172;45.018;5.972;2023-03-01T22:50:24;0.40;73.80
16134;DHT22;8172;45.018;5.972;2023-03-01T22:55:31;0.40;73.90
16134;DHT22;8172;45.018;5.972;2023-03-01T23:00:38;0.40;73.90
16134;DHT22;8172;45.018;5.972;2023-03-01T23:05:45;0.40;74.00
16134;DHT22;8172;45.018;5.972;2023-03-01T23:10:53;0.40;74.00
16134;DHT22;8172;45.018;5.972;2023-03-01T23:16:00;0.50;74.00
16134;DHT22;8172;45.018;5.972;2023-03-01T23:21:09;0.40;74.00
16134;DHT22;8172;45.018;5.972;2023-03-01T23:26:17;0.40;74.10
16134;DHT22;8172;45.018;5.972;2023-03-01T23:31:26;0.40;74.10
16134;DHT22;8172;45.018;5.972;2023-03-01T23:36:34;0.40;74.20
16134;DHT22;8172;45.018;5.972;2023-03-01T23:41:44;0.40;74.20
16134;DHT22;8172;45.018;5.972;2023-03-01T23:46:53;0.40;74.20
16134;DHT22;8172;45.018;5.972;2023-03-01T23:52:00;0.50;74.10
16134;DHT22;8172;45.018;5.972;2023-03-01T23:57:07;0.40;73.90
